Time;durP1;ratioP1;P1;durP2;ratioP2;P2;SDS_P1;SDS_P2;PMS_P1;PMS_P2;Temp;Humidity;BMP_temperature;BMP_pressure;BME280_temperature;BME280_humidity;BME280_pressure;Samples;Min_cycle;Max_cycle;Signal;HPM_P1;HPM_P2
2021/12/21 00:00:33;;;;;;;8.50;7.60;;;0.40;99.90;;;;;;5038647;28;20789;-85
2021/12/21 00:02:58;;;;;;;15.35;7.85;;;1.70;99.90;;;;;;5032750;28;20481;-84
2021/12/21 00:05:28;;;;;;;9.60;7.77;;;0.50;99.90;;;;;;5058813;28;20195;-85
2021/12/21 00:08:10;;;;;;;13.48;8.00;;;0.50;99.90;;;;;;5041359;28;20195;-82
2021/12/21 00:10:47;;;;;;;12.07;7.30;;;0.50;99.90;;;;;;5054585;28;20201;-85
2021/12/21 00:13:35;;;;;;;7.75;6.95;;;0.50;99.90;;;;;;5069855;28;20225;-84
2021/12/21 00:16:26;;;;;;;14.18;8.75;;;0.30;99.90;;;;;;5034844;28;20189;-84
2021/12/21 00:19:12;;;;;;;13.18;8.07;;;0.50;99.90;;;;;;5039410;28;20285;-85
2021/12/21 00:21:41;;;;;;;13.20;9.30;;;0.30;99.90;;;;;;5062129;28;20282;-85
2021/12/21 00:24:13;;;;;;;17.10;7.90;;;0.50;99.90;;;;;;5051837;28;20219;-84
2021/12/21 00:26:39;;;;;;;9.82;7.30;;;0.40;99.90;;;;;;5032232;28;20594;-84
2021/12/21 00:29:06;;;;;;;11.83;7.73;;;0.30;99.90;;;;;;5062204;28;20194;-85
2021/12/21 00:31:39;;;;;;;20.73;13.35;;;-0.20;99.90;;;;;;5054206;28;20929;-84
2021/12/21 00:34:07;;;;;;;10.80;7.80;;;0.20;99.90;;;;;;5050987;28;20187;-84
2021/12/21 00:36:35;;;;;;;11.18;8.07;;;0.30;99.90;;;;;;5057642;28;20201;-84
2021/12/21 00:39:06;;;;;;;18.15;8.77;;;0.40;99.90;;;;;;5036868;28;20183;-82
2021/12/21 00:41:32;;;;;;;14.55;8.75;;;0.00;99.90;;;;;;5054191;28;20933;-82
2021/12/21 00:43:58;;;;;;;9.63;7.65;;;0.20;99.90;;;;;;5038729;28;20202;-82
2021/12/21 00:46:24;;;;;;;9.90;8.13;;;0.10;99.90;;;;;;5053629;28;20195;-84
2021/12/21 00:48:53;;;;;;;17.75;9.73;;;0.20;99.90;;;;;;5053476;28;20257;-83
2021/12/21 00:51:21;;;;;;;13.60;8.48;;;0.00;99.90;;;;;;5054492;28;20226;-84
2021/12/21 00:53:47;;;;;;;14.73;7.80;;;0.00;99.90;;;;;;5049161;28;20198;-84
2021/12/21 00:56:13;;;;;;;11.52;8.77;;;0.10;99.90;;;;;;5054042;28;20194;-84
2021/12/21 00:58:39;;;;;;;16.57;8.60;;;-0.40;99.90;;;;;;5037182;28;20672;-84
2021/12/21 01:01:06;;;;;;;8.95;7.50;;;-0.10;99.90;;;;;;5050260;28;20423;-84
2021/12/21 01:03:34;;;;;;;9.23;8.02;;;-0.20;99.90;;;;;;5058487;28;20210;-84
2021/12/21 01:09:09;;;;;;;7.75;6.95;;;-0.40;99.90;;;;;;5012198;28;20210;-83
2021/12/21 01:11:40;;;;;;;9.57;7.80;;;-0.20;99.90;;;;;;5046830;28;20249;-83
2021/12/21 01:16:58;;;;;;;11.70;7.60;;;0.30;99.90;;;;;;5047154;28;20262;-84
2021/12/21 01:19:33;;;;;;;10.55;7.45;;;-0.30;99.90;;;;;;5040170;28;20670;-83
2021/12/21 01:22:12;;;;;;;16.25;8.45;;;-0.30;99.90;;;;;;5049564;28;20198;-83
2021/12/21 01:24:54;;;;;;;10.02;7.63;;;-0.30;99.90;;;;;;5063480;28;20203;-84
2021/12/21 01:30:08;;;;;;;11.05;7.57;;;-0.40;99.90;;;;;;5065436;28;20783;-83
2021/12/21 01:35:32;;;;;;;14.40;7.60;;;-0.50;99.90;;;;;;5058458;28;20286;-83
2021/12/21 01:38:10;;;;;;;9.45;7.97;;;-0.60;99.90;;;;;;5047160;28;20182;-84
2021/12/21 01:40:53;;;;;;;13.05;8.77;;;-0.30;99.90;;;;;;5054041;28;20190;-84
2021/12/21 01:51:21;;;;;;;13.30;8.95;;;-0.30;99.90;;;;;;5053475;28;20350;-84
2021/12/21 01:53:47;;;;;;;10.10;7.70;;;-0.50;99.90;;;;;;5037908;28;20182;-84
2021/12/21 01:56:14;;;;;;;8.70;7.82;;;-0.60;99.90;;;;;;5035649;28;20198;-82
2021/12/21 01:58:40;;;;;;;13.98;9.38;;;-0.70;99.90;;;;;;5052297;28;20198;-84
2021/12/21 02:01:08;;;;;;;12.48;8.30;;;-0.40;99.90;;;;;;5054097;28;20598;-83
2021/12/21 02:03:35;;;;;;;10.25;6.85;;;-0.60;99.90;;;;;;5052244;28;20207;-83
2021/12/21 02:06:00;;;;;;;18.92;8.05;;;-0.50;99.90;;;;;;5053940;28;20183;-83
2021/12/21 02:08:26;;;;;;;10.80;7.30;;;-0.50;99.90;;;;;;5058831;28;20293;-85
2021/12/21 02:10:52;;;;;;;13.70;9.50;;;-0.50;99.90;;;;;;5048847;28;20776;-83
2021/12/21 02:13:18;;;;;;;12.70;7.70;;;-0.50;99.90;;;;;;5055499;28;20228;-83
2021/12/21 02:15:46;;;;;;;11.37;8.40;;;-0.40;99.90;;;;;;5041179;28;21323;-83
2021/12/21 02:21:28;;;;;;;12.05;7.50;;;0.70;99.90;;;;;;4966497;28;20192;-83
2021/12/21 02:23:58;;;;;;;13.88;7.95;;;-0.80;99.90;;;;;;4968849;28;20216;-83
2021/12/21 02:29:25;;;;;;;9.18;8.25;;;-0.60;99.90;;;;;;5060401;28;20271;-84
2021/12/21 02:31:52;;;;;;;14.40;8.00;;;-0.90;99.90;;;;;;5059531;28;20664;-84
2021/12/21 02:34:19;;;;;;;17.50;8.52;;;1.70;99.90;;;;;;5028802;28;20290;-83
2021/12/21 02:36:48;;;;;;;9.98;7.88;;;-0.70;99.90;;;;;;5033429;28;20239;-83
2021/12/21 02:39:15;;;;;;;17.90;8.13;;;-0.60;99.90;;;;;;5053715;28;20649;-82
2021/12/21 02:41:42;;;;;;;8.60;7.93;;;-0.60;99.90;;;;;;5034077;28;20582;-83
2021/12/21 02:44:09;;;;;;;6.80;6.10;;;-0.50;99.90;;;;;;5038549;28;20207;-83
2021/12/21 02:46:38;;;;;;;7.63;6.90;;;-0.60;99.90;;;;;;5052793;28;20530;-84
2021/12/21 02:49:05;;;;;;;9.23;7.28;;;-0.40;99.90;;;;;;5043142;28;20190;-84
2021/12/21 02:51:30;;;;;;;8.90;6.40;;;-0.50;99.90;;;;;;5038047;28;20230;-83
2021/12/21 02:53:56;;;;;;;9.80;6.80;;;-0.70;99.90;;;;;;5035505;28;20571;-84
2021/12/21 02:56:23;;;;;;;8.73;7.90;;;-0.60;99.90;;;;;;5053628;28;20198;-84
2021/12/21 02:58:49;;;;;;;9.88;6.70;;;-1.00;99.90;;;;;;5060798;28;20926;-85
2021/12/21 03:01:16;;;;;;;10.20;8.15;;;-0.80;99.90;;;;;;5048735;28;20272;-83
2021/12/21 03:03:41;;;;;;;8.75;7.55;;;-0.90;99.90;;;;;;5048570;28;20637;-83
2021/12/21 03:06:13;;;;;;;13.17;8.03;;;-0.90;99.90;;;;;;5041223;28;20278;-83
2021/12/21 03:08:43;;;;;;;13.27;6.53;;;-0.80;99.90;;;;;;5048047;28;20256;-84
2021/12/21 03:11:35;;;;;;;20.15;7.50;;;-0.80;99.90;;;;;;5037881;28;20182;-84
2021/12/21 03:14:04;;;;;;;8.07;7.38;;;-0.30;99.90;;;;;;5042764;28;20658;-84
2021/12/21 03:16:34;;;;;;;10.13;8.25;;;-1.00;99.90;;;;;;5054007;28;20198;-83
2021/12/21 03:19:00;;;;;;;9.45;7.53;;;-0.80;99.90;;;;;;5046270;28;20675;-83
2021/12/21 03:21:27;;;;;;;17.23;8.15;;;-1.00;99.90;;;;;;5053764;28;20194;-83
2021/12/21 03:23:56;;;;;;;11.27;6.75;;;-1.30;99.90;;;;;;5034560;28;20206;-83
2021/12/21 03:26:21;;;;;;;9.45;7.50;;;-0.50;99.90;;;;;;5039853;28;20659;-84
2021/12/21 03:28:47;;;;;;;10.50;7.20;;;-1.00;99.90;;;;;;5053710;28;20236;-84
2021/12/21 03:31:13;;;;;;;9.77;6.80;;;-1.10;99.90;;;;;;5050749;28;20410;-83
2021/12/21 03:33:38;;;;;;;12.47;8.63;;;-0.90;99.90;;;;;;5048600;28;20287;-83
2021/12/21 03:36:05;;;;;;;8.57;7.03;;;-0.80;99.90;;;;;;5053265;28;20619;-83
2021/12/21 03:38:32;;;;;;;9.85;7.05;;;-1.00;99.90;;;;;;5058093;28;20178;-83
2021/12/21 03:41:12;;;;;;;6.85;5.95;;;-1.20;99.90;;;;;;5042434;28;20328;-84
2021/12/21 03:43:38;;;;;;;11.15;7.30;;;-1.10;99.90;;;;;;5065510;28;20279;-83
2021/12/21 03:46:09;;;;;;;11.35;7.97;;;-1.30;99.90;;;;;;5058818;28;20193;-83
2021/12/21 03:48:36;;;;;;;11.57;7.90;;;-1.20;99.90;;;;;;5055535;28;20191;-84
2021/12/21 03:51:03;;;;;;;10.02;7.80;;;;;;;;;;5025591;28;20220;-84
2021/12/21 03:53:28;;;;;;;10.50;7.47;;;-1.30;99.90;;;;;;5008891;28;20557;-86
2021/12/21 03:56:10;;;;;;;7.17;6.47;;;-1.40;99.90;;;;;;5018072;28;20254;-85
2021/12/21 03:58:36;;;;;;;9.05;6.45;;;-1.20;99.90;;;;;;5021961;28;20274;-85
2021/12/21 04:01:03;;;;;;;10.27;7.80;;;-1.20;99.90;;;;;;5016994;28;20831;-85
2021/12/21 04:03:29;;;;;;;10.20;8.52;;;-0.80;99.90;;;;;;5016106;28;20336;-85
2021/12/21 04:05:54;;;;;;;9.90;7.80;;;-1.10;99.90;;;;;;5011867;28;20212;-84
2021/12/21 04:08:20;;;;;;;7.37;6.60;;;-1.60;99.90;;;;;;5021744;28;20258;-84
2021/12/21 04:10:48;;;;;;;8.20;6.80;;;-1.10;99.90;;;;;;5016084;28;20199;-84
2021/12/21 04:13:14;;;;;;;9.50;8.30;;;-1.40;99.90;;;;;;5020777;28;20652;-85
2021/12/21 04:15:43;;;;;;;8.40;7.03;;;-1.30;99.90;;;;;;5018835;28;20226;-85
2021/12/21 04:18:12;;;;;;;13.88;8.88;;;-1.20;99.90;;;;;;5021127;28;20323;-85
2021/12/21 04:20:41;;;;;;;11.20;7.65;;;-1.00;99.90;;;;;;5021390;28;20567;-84
2021/12/21 04:23:07;;;;;;;11.23;7.90;;;-1.10;99.90;;;;;;5017420;28;20208;-82
2021/12/21 04:25:34;;;;;;;11.63;7.05;;;-1.00;99.90;;;;;;5012780;28;20988;-86
2021/12/21 04:28:00;;;;;;;9.00;7.68;;;-1.60;99.90;;;;;;5010654;28;20188;-83
2021/12/21 04:30:26;;;;;;;9.50;6.93;;;-1.20;99.90;;;;;;5012665;28;20553;-83
2021/12/21 04:32:52;;;;;;;14.33;7.20;;;-1.30;99.90;;;;;;5014455;28;20444;-83
2021/12/21 04:35:20;;;;;;;16.47;5.50;;;0.20;99.90;;;;;;5006993;28;20453;-84
2021/12/21 04:37:51;;;;;;;9.93;6.75;;;-1.20;99.90;;;;;;5019099;28;20417;-84
2021/12/21 04:40:19;;;;;;;11.43;7.40;;;-1.00;99.90;;;;;;5014540;28;20600;-86
2021/12/21 04:42:45;;;;;;;10.77;7.50;;;-1.30;99.90;;;;;;5018364;28;20606;-84
2021/12/21 04:45:11;;;;;;;9.00;7.47;;;-1.30;99.90;;;;;;5016556;28;20196;-84
2021/12/21 04:47:36;;;;;;;7.63;6.90;;;-1.30;99.90;;;;;;5014666;28;20215;-84
2021/12/21 04:50:03;;;;;;;7.30;6.60;;;-1.30;99.90;;;;;;5027081;28;20659;-83
2021/12/21 04:52:28;;;;;;;8.77;7.97;;;-1.40;99.90;;;;;;5035869;28;20783;-83
2021/12/21 04:54:55;;;;;;;9.70;7.40;;;-1.50;99.90;;;;;;5061646;28;20183;-83
2021/12/21 04:57:21;;;;;;;10.50;6.53;;;;;;;;;;5032556;28;20262;-82
2021/12/21 04:59:46;;;;;;;7.93;7.20;;;-1.40;99.90;;;;;;5058094;28;20183;-84
2021/12/21 05:02:12;;;;;;;8.90;7.80;;;;;;;;;;5036647;28;20285;-83
2021/12/21 05:04:39;;;;;;;7.90;7.10;;;-1.40;99.90;;;;;;5054674;28;20202;-84
2021/12/21 05:07:05;;;;;;;8.25;7.03;;;-1.50;99.90;;;;;;5055671;28;20192;-82
2021/12/21 05:09:40;;;;;;;10.88;6.55;;;-1.50;99.90;;;;;;5056285;28;20179;-83
2021/12/21 05:12:08;;;;;;;11.82;6.07;;;-1.50;99.90;;;;;;5054906;28;20680;-84
2021/12/21 05:14:36;;;;;;;12.35;8.48;;;-1.30;99.90;;;;;;5057533;28;20176;-83
2021/12/21 05:17:01;;;;;;;9.95;7.07;;;-1.40;99.90;;;;;;5056080;28;20320;-82
2021/12/21 05:19:27;;;;;;;17.43;8.60;;;;;;;;;;5057309;28;20195;-83
2021/12/21 05:21:53;;;;;;;7.70;6.80;;;-1.30;99.90;;;;;;5051610;28;20187;-83
2021/12/21 05:24:19;;;;;;;7.80;7.00;;;-1.30;99.90;;;;;;5039523;28;20206;-83
2021/12/21 05:26:44;;;;;;;8.30;7.40;;;-1.40;99.90;;;;;;5035761;28;20214;-84
2021/12/21 05:29:11;;;;;;;9.33;6.60;;;;;;;;;;5057159;28;20262;-85
2021/12/21 05:31:36;;;;;;;7.68;6.97;;;-1.40;99.90;;;;;;5055852;28;20608;-84
2021/12/21 05:34:11;;;;;;;9.93;8.27;;;-1.50;99.90;;;;;;5038717;28;20704;-84
2021/12/21 05:36:52;;;;;;;9.50;7.47;;;-1.50;99.90;;;;;;5054073;28;20194;-83
2021/12/21 05:39:23;;;;;;;16.10;8.77;;;;;;;;;;5058993;28;20171;-82
2021/12/21 05:41:54;;;;;;;8.80;6.32;;;;;;;;;;5054998;28;20596;-83
2021/12/21 05:44:25;;;;;;;7.90;6.45;;;-1.50;99.90;;;;;;5063669;28;20305;-83
2021/12/21 05:46:59;;;;;;;13.68;7.70;;;-1.40;99.90;;;;;;5036373;28;20174;-83
2021/12/21 05:49:26;;;;;;;8.02;6.80;;;;;;;;;;5042805;28;20189;-84
2021/12/21 05:51:53;;;;;;;7.88;6.68;;;;;;;;;;5057305;28;20214;-84
2021/12/21 05:54:28;;;;;;;14.85;8.52;;;;;;;;;;5064775;28;20186;-84
2021/12/21 05:56:54;;;;;;;13.23;8.70;;;;;;;;;;5062516;28;20601;-83
2021/12/21 05:59:25;;;;;;;12.90;7.80;;;-1.50;99.90;;;;;;5063735;28;20235;-82
2021/12/21 06:01:51;;;;;;;12.98;8.57;;;;;;;;;;5059781;28;20199;-85
2021/12/21 06:04:17;;;;;;;11.73;7.67;;;-1.50;99.90;;;;;;5059018;28;20214;-84
2021/12/21 06:06:44;;;;;;;11.95;8.15;;;-1.50;99.90;;;;;;5055979;28;20488;-86
2021/12/21 06:09:13;;;;;;;12.23;7.43;;;;;;;;;;5056047;28;20186;-85
2021/12/21 06:11:52;;;;;;;15.38;9.63;;;-1.50;99.90;;;;;;5062625;28;20182;-85
2021/12/21 06:14:39;;;;;;;9.50;7.85;;;-1.50;99.90;;;;;;5037199;28;20187;-85
2021/12/21 06:27:44;;;;;;;9.52;8.52;;;-1.70;99.90;;;;;;5052143;28;20301;-83
2021/12/21 06:30:10;;;;;;;8.38;7.60;;;;;;;;;;5056011;28;20183;-85
2021/12/21 06:32:36;;;;;;;10.25;8.15;;;-1.80;99.90;;;;;;5057332;28;20194;-86
2021/12/21 06:35:04;;;;;;;10.13;8.87;;;-1.90;99.90;;;;;;5051893;28;20746;-83
2021/12/21 06:37:42;;;;;;;9.68;7.88;;;-1.80;99.90;;;;;;5052211;28;20829;-86
2021/12/21 06:40:10;;;;;;;16.52;10.18;;;-1.70;99.90;;;;;;5044640;28;20696;-83
2021/12/21 06:42:38;;;;;;;11.48;8.80;;;-1.80;99.90;;;;;;5035513;28;20183;-85
2021/12/21 06:45:13;;;;;;;11.63;8.80;;;-1.80;99.90;;;;;;5038915;28;20676;-86
2021/12/21 06:53:12;;;;;;;9.18;8.25;;;;;;;;;;5061565;28;20255;-86
2021/12/21 06:55:38;;;;;;;10.20;7.63;;;-1.80;99.90;;;;;;5061973;28;20182;-86
2021/12/21 06:58:04;;;;;;;13.10;6.80;;;;;;;;;;5062113;28;20515;-83
2021/12/21 07:00:30;;;;;;;11.18;7.88;;;;;;;;;;5044394;28;20190;-85
2021/12/21 07:02:57;;;;;;;11.75;8.23;;;;;;;;;;5059004;28;20201;-86
2021/12/21 07:05:23;;;;;;;10.02;8.07;;;-1.80;99.90;;;;;;5040855;28;20187;-83
2021/12/21 07:07:53;;;;;;;21.88;8.70;;;;;;;;;;5052055;28;20221;-85
2021/12/21 07:10:31;;;;;;;11.18;8.23;;;-2.00;99.90;;;;;;5062621;28;20202;-87
2021/12/21 07:18:31;;;;;;;13.13;8.00;;;;;;;;;;5064127;28;20220;-86
2021/12/21 07:21:01;;;;;;;8.15;7.45;;;-1.80;99.90;;;;;;5068279;28;20198;-86
2021/12/21 07:23:31;;;;;;;9.38;7.95;;;-1.80;99.90;;;;;;5049919;28;20250;-86
2021/12/21 07:25:57;;;;;;;12.45;7.68;;;-1.40;99.90;;;;;;5038086;28;20564;-85
2021/12/21 07:28:23;;;;;;;16.53;7.70;;;-1.60;99.90;;;;;;5051825;28;20209;-83
2021/12/21 07:30:50;;;;;;;11.77;7.38;;;;;;;;;;5049376;28;20706;-84
2021/12/21 07:33:18;;;;;;;6.88;6.32;;;-1.80;99.90;;;;;;5056878;28;20244;-84
2021/12/21 07:35:47;;;;;;;9.20;6.93;;;-1.90;99.90;;;;;;5050843;28;20208;-88
2021/12/21 07:38:14;;;;;;;14.73;10.13;;;-1.70;99.90;;;;;;5060051;28;20282;-84
2021/12/21 07:40:39;;;;;;;13.38;8.55;;;-1.90;99.90;;;;;;5061770;28;20248;-80
2021/12/21 07:43:05;;;;;;;9.37;8.33;;;-1.90;99.90;;;;;;5055813;28;20623;-81
2021/12/21 07:45:31;;;;;;;13.87;10.10;;;-1.70;99.90;;;;;;5066505;28;20617;-81
2021/12/21 07:48:12;;;;;;;10.70;8.57;;;-2.00;99.90;;;;;;5064468;28;20559;-81
2021/12/21 07:50:39;;;;;;;11.05;8.90;;;-1.90;99.90;;;;;;5053999;28;20256;-82
2021/12/21 07:53:31;;;;;;;12.60;8.35;;;-1.80;99.90;;;;;;5062050;28;20190;-81
2021/12/21 07:56:01;;;;;;;8.73;7.97;;;-1.80;99.90;;;;;;5059817;28;20196;-81
2021/12/21 07:58:29;;;;;;;10.38;7.80;;;-2.00;99.90;;;;;;5059810;28;20606;-80
2021/12/21 08:01:03;;;;;;;10.77;7.35;;;-1.80;99.90;;;;;;5053338;28;20172;-82
2021/12/21 08:03:30;;;;;;;10.10;9.10;;;-1.90;99.90;;;;;;5051762;28;20214;-81
2021/12/21 08:05:58;;;;;;;11.02;9.63;;;-1.80;99.90;;;;;;5058385;28;20682;-81
2021/12/21 08:08:27;;;;;;;12.05;10.18;;;-1.90;99.90;;;;;;5045450;28;20193;-81
2021/12/21 08:11:07;;;;;;;12.23;8.77;;;-2.10;99.90;;;;;;5049910;28;20266;-81
2021/12/21 08:13:55;;;;;;;10.18;8.88;;;-1.90;99.90;;;;;;5050722;28;20651;-85
2021/12/21 08:16:36;;;;;;;11.85;8.35;;;-1.80;99.90;;;;;;5048336;28;20198;-85
2021/12/21 08:19:02;;;;;;;12.90;9.13;;;-1.90;99.90;;;;;;5057089;28;20199;-83
2021/12/21 08:21:28;;;;;;;9.43;8.43;;;-1.70;99.90;;;;;;5062848;28;20253;-86
2021/12/21 08:23:53;;;;;;;17.02;7.85;;;-1.90;99.90;;;;;;5056808;28;20597;-87
2021/12/21 08:26:19;;;;;;;14.73;9.70;;;-1.90;99.90;;;;;;5061778;28;20266;-87
2021/12/21 08:28:48;;;;;;;9.67;8.37;;;;;;;;;;5048637;28;20320;-88
2021/12/21 08:31:14;;;;;;;8.95;8.05;;;-1.90;99.90;;;;;;5056243;28;20180;-88
2021/12/21 08:33:44;;;;;;;11.67;8.07;;;-1.70;99.90;;;;;;5040871;28;20230;-88
2021/12/21 08:36:11;;;;;;;9.80;8.20;;;;;;;;;;5060821;28;20171;-87
2021/12/21 08:38:41;;;;;;;16.13;7.82;;;-1.70;99.90;;;;;;5043660;28;20273;-88
2021/12/21 08:41:10;;;;;;;12.07;9.73;;;-1.70;99.90;;;;;;5045787;28;20517;-87
2021/12/21 08:43:39;;;;;;;8.32;6.95;;;-1.70;99.90;;;;;;5060271;28;20207;-82
2021/12/21 08:46:09;;;;;;;11.07;6.82;;;-1.70;99.90;;;;;;5055255;28;20199;-87
2021/12/21 08:48:37;;;;;;;12.57;8.00;;;-1.60;99.90;;;;;;5061045;28;20748;-85
2021/12/21 08:51:04;;;;;;;9.13;6.88;;;-1.60;99.90;;;;;;5045445;28;20492;-88
2021/12/21 08:53:30;;;;;;;9.77;8.82;;;-0.80;99.90;;;;;;5065231;28;20260;-85
2021/12/21 08:55:59;;;;;;;8.98;7.10;;;-1.60;99.90;;;;;;5067953;28;20241;-87
2021/12/21 08:58:28;;;;;;;7.57;6.88;;;;;;;;;;5046448;28;20285;-86
2021/12/21 09:00:54;;;;;;;13.73;6.68;;;-1.30;99.90;;;;;;5069432;28;20191;-87
2021/12/21 09:03:26;;;;;;;7.00;5.57;;;-1.50;99.90;;;;;;5071010;28;20222;-86
2021/12/21 09:05:54;;;;;;;6.45;5.82;;;-1.50;99.90;;;;;;5052587;28;20190;-87
2021/12/21 09:08:24;;;;;;;10.90;7.18;;;-1.40;99.90;;;;;;5064177;28;20263;-87
2021/12/21 09:10:52;;;;;;;7.25;6.45;;;-1.30;99.90;;;;;;5051629;28;20211;-85
2021/12/21 09:13:18;;;;;;;11.38;10.23;;;;;;;;;;5045526;28;20231;-82
2021/12/21 09:15:48;;;;;;;8.02;7.30;;;-1.30;99.90;;;;;;5061254;28;20190;-82
2021/12/21 09:18:13;;;;;;;13.82;8.05;;;-1.40;99.90;;;;;;5054893;28;20171;-82
2021/12/21 09:20:39;;;;;;;7.10;6.43;;;-0.90;99.90;;;;;;5052415;28;20695;-83
2021/12/21 09:23:05;;;;;;;8.70;7.90;;;;;;;;;;5043515;28;20277;-82
2021/12/21 09:25:33;;;;;;;8.48;6.18;;;-1.30;99.90;;;;;;5056923;28;20193;-81
2021/12/21 09:27:58;;;;;;;8.00;7.20;;;-1.10;99.90;;;;;;4687720;28;9999903;-79
2021/12/21 09:30:26;;;;;;;10.63;7.93;;;-0.80;99.90;;;;;;5052965;28;20192;-83
2021/12/21 09:32:52;;;;;;;8.57;7.65;;;0.90;99.90;;;;;;5055342;28;20202;-83
2021/12/21 09:35:18;;;;;;;7.03;6.37;;;-0.20;99.90;;;;;;5062029;28;20185;-81
2021/12/21 09:37:44;;;;;;;7.50;5.50;;;-0.20;99.90;;;;;;5052595;28;20415;-82
2021/12/21 09:40:14;;;;;;;14.35;6.05;;;0.60;99.90;;;;;;5039968;28;20267;-81
2021/12/21 09:42:39;;;;;;;5.50;4.97;;;1.90;99.90;;;;;;5052386;28;20182;-81
2021/12/21 09:45:06;;;;;;;15.80;11.87;;;2.10;99.90;;;;;;5025302;28;20218;-81
2021/12/21 09:47:32;;;;;;;6.85;6.38;;;3.00;99.90;;;;;;5051321;28;20277;-82
2021/12/21 09:49:58;;;;;;;8.02;4.93;;;3.20;99.90;;;;;;5027620;28;20750;-82
2021/12/21 09:52:29;;;;;;;9.73;5.68;;;4.40;99.90;;;;;;5055747;28;20207;-82
2021/12/21 09:54:55;;;;;;;6.43;5.18;;;4.90;99.90;;;;;;5039711;28;20263;-83
2021/12/21 09:57:21;;;;;;;7.70;5.47;;;4.80;99.90;;;;;;5038873;28;20278;-84
2021/12/21 09:59:49;;;;;;;7.28;5.53;;;5.70;99.90;;;;;;5041701;28;20199;-82
2021/12/21 10:02:18;;;;;;;40.78;5.20;;;7.70;99.90;;;;;;5055166;28;20334;-83
2021/12/21 10:04:57;;;;;;;7.35;6.45;;;6.50;99.90;;;;;;5027807;28;20222;-82
2021/12/21 10:07:24;;;;;;;5.07;4.75;;;5.80;99.90;;;;;;5061084;28;20251;-87
2021/12/21 10:09:53;;;;;;;7.10;6.00;;;5.60;99.90;;;;;;5052269;28;20186;-85
2021/12/21 10:12:32;;;;;;;7.85;5.45;;;4.90;99.90;;;;;;5040010;28;20191;-85
2021/12/21 10:15:32;;;;;;;8.63;5.80;;;5.00;99.90;;;;;;5048353;28;20247;-86
2021/12/21 10:18:04;;;;;;;5.85;5.35;;;4.10;99.90;;;;;;4703403;28;10000414;-87
2021/12/21 10:20:43;;;;;;;6.38;5.75;;;4.10;99.90;;;;;;5056902;28;20190;-85
2021/12/21 10:23:29;;;;;;;6.88;5.90;;;3.60;99.90;;;;;;5049465;28;20231;-87
2021/12/21 10:26:02;;;;;;;6.68;5.60;;;3.80;99.90;;;;;;5052398;28;20187;-86
2021/12/21 10:28:29;;;;;;;4.83;4.43;;;;;;;;;;4706812;28;9999860;-84
2021/12/21 10:30:55;;;;;;;6.75;6.05;;;3.60;99.90;;;;;;5048086;28;20219;-84
2021/12/21 10:33:23;;;;;;;6.85;5.68;;;3.60;99.90;;;;;;5022532;28;20255;-83
2021/12/21 10:35:51;;;;;;;7.97;7.25;;;3.80;99.90;;;;;;5056874;28;20258;-85
2021/12/21 10:38:28;;;;;;;8.73;5.85;;;3.70;99.90;;;;;;5047168;28;20183;-86
2021/12/21 10:40:54;;;;;;;6.82;5.60;;;3.50;99.90;;;;;;5040648;28;20229;-87
2021/12/21 10:43:20;;;;;;;6.20;5.50;;;4.00;99.90;;;;;;5032037;28;20215;-85
2021/12/21 10:45:47;;;;;;;6.00;5.50;;;;;;;;;;5054292;28;20194;-84
2021/12/21 10:48:19;;;;;;;13.35;10.27;;;4.60;99.90;;;;;;5035335;28;20447;-83
2021/12/21 10:50:48;;;;;;;8.95;7.30;;;5.20;99.90;;;;;;5063914;28;20237;-85
2021/12/21 10:53:20;;;;;;;7.78;7.13;;;4.80;99.90;;;;;;5042249;28;20205;-84
2021/12/21 10:56:04;;;;;;;10.88;7.20;;;5.70;99.90;;;;;;5056805;28;20195;-85
2021/12/21 10:58:36;;;;;;;16.73;6.70;;;6.20;99.90;;;;;;5044426;28;20750;-87
2021/12/21 11:01:06;;;;;;;10.52;7.28;;;6.70;99.90;;;;;;5035464;28;20218;-88
2021/12/21 11:03:54;;;;;;;8.13;6.40;;;7.10;99.90;;;;;;5075158;28;20266;-86
2021/12/21 11:06:26;;;;;;;7.93;6.67;;;7.70;99.90;;;;;;5058616;28;20214;-86
2021/12/21 11:08:54;;;;;;;6.90;6.20;;;8.60;99.90;;;;;;5077363;28;20426;-84
2021/12/21 11:11:28;;;;;;;7.90;7.10;;;9.50;99.90;;;;;;5064085;28;20187;-84
2021/12/21 11:14:12;;;;;;;9.10;6.50;;;;;;;;;;5032220;28;20441;-85
2021/12/21 11:16:38;;;;;;;7.50;7.00;;;;;;;;;;4699335;28;10000319;-85
2021/12/21 11:19:14;;;;;;;6.63;6.13;;;11.50;85.30;;;;;;5053200;28;20270;-85
2021/12/21 11:21:41;;;;;;;10.90;7.80;;;;;;;;;;5042890;28;20979;-87
2021/12/21 11:24:10;;;;;;;8.50;6.57;;;12.30;72.20;;;;;;5063804;28;20483;-87
2021/12/21 11:26:37;;;;;;;7.77;7.20;;;12.40;73.50;;;;;;5064232;28;20787;-86
2021/12/21 11:29:06;;;;;;;7.57;6.97;;;12.10;72.30;;;;;;5048529;28;20949;-86
2021/12/21 11:31:40;;;;;;;7.77;7.27;;;12.50;70.40;;;;;;5042741;28;20436;-86
2021/12/21 11:34:14;;;;;;;8.60;7.73;;;13.70;67.20;;;;;;5069183;28;20952;-84
2021/12/21 11:39:33;;;;;;;8.40;7.70;;;;;;;;;;5050445;28;20432;-86
2021/12/21 11:42:34;;;;;;;7.53;7.03;;;12.60;61.10;;;;;;5033948;28;20417;-85
2021/12/21 11:45:09;;;;;;;9.70;6.60;;;12.80;59.70;;;;;;5018495;28;20538;-85
2021/12/21 11:47:41;;;;;;;7.17;6.67;;;13.60;61.00;;;;;;5033243;28;20450;-82
2021/12/21 11:50:09;;;;;;;7.40;6.60;;;;;;;;;;5025744;28;20485;-84
2021/12/21 11:52:54;;;;;;;6.90;6.27;;;14.80;60.30;;;;;;5037310;28;20447;-85
2021/12/21 11:55:25;;;;;;;8.50;7.70;;;15.00;57.30;;;;;;5053816;28;20433;-82
2021/12/21 11:58:26;;;;;;;8.40;6.60;;;15.20;57.70;;;;;;5032522;28;20517;-82
2021/12/21 12:01:02;;;;;;;6.30;5.70;;;16.20;58.40;;;;;;4994168;28;20448;-82
2021/12/21 12:03:30;;;;;;;6.33;5.73;;;;;;;;;;5048462;28;20473;-83
2021/12/21 12:06:12;;;;;;;6.03;5.53;;;16.10;40.20;;;;;;5055508;28;20436;-81
2021/12/21 12:08:50;;;;;;;10.73;7.17;;;15.90;38.60;;;;;;5066926;28;20432;-83
2021/12/21 12:11:22;;;;;;;7.67;6.93;;;18.00;43.50;;;;;;5051217;28;20448;-81
2021/12/21 12:13:47;;;;;;;6.20;5.80;;;15.30;43.00;;;;;;5042670;28;20417;-81
2021/12/21 12:16:18;;;;;;;6.30;5.70;;;15.00;43.80;;;;;;5029875;28;20505;-82
2021/12/21 12:18:46;;;;;;;5.97;5.57;;;15.10;56.80;;;;;;5046708;28;20599;-82
2021/12/21 12:21:12;;;;;;;4.73;4.53;;;;;;;;;;4696747;28;10000702;-81
2021/12/21 12:24:17;;;;;;;5.20;4.70;;;15.30;39.00;;;;;;5048606;28;20222;-82
2021/12/21 12:26:43;;;;;;;5.30;5.00;;;;;;;;;;4978458;28;20448;-83
2021/12/21 12:29:14;;;;;;;6.83;5.93;;;15.30;38.50;;;;;;5039564;28;20437;-82
2021/12/21 12:31:42;;;;;;;7.90;7.40;;;15.50;42.40;;;;;;5038002;28;20441;-83
2021/12/21 12:34:21;;;;;;;6.57;5.93;;;16.00;42.10;;;;;;5055772;28;21228;-81
2021/12/21 12:36:50;;;;;;;8.10;6.50;;;15.90;40.00;;;;;;5039425;28;20436;-84
2021/12/21 12:39:39;;;;;;;8.13;7.53;;;17.10;42.50;;;;;;5027752;28;20509;-81
2021/12/21 12:42:25;;;;;;;7.30;6.80;;;15.50;42.30;;;;;;5037022;28;20461;-85
2021/12/21 12:45:21;;;;;;;7.77;6.97;;;15.30;55.90;;;;;;5057417;28;20526;-86
2021/12/21 12:47:57;;;;;;;9.00;8.27;;;15.00;54.60;;;;;;5042009;28;20459;-86
2021/12/21 12:50:53;;;;;;;6.00;5.60;;;14.80;56.70;;;;;;5061852;28;20521;-86
2021/12/21 12:53:20;;;;;;;6.00;5.47;;;13.80;40.30;;;;;;5069454;28;20441;-86
2021/12/21 12:55:58;;;;;;;5.33;4.93;;;14.60;42.80;;;;;;5052828;28;20769;-85
2021/12/21 12:58:27;;;;;;;7.63;5.67;;;14.50;56.30;;;;;;5075064;28;20425;-87
2021/12/21 13:01:18;;;;;;;4.83;4.53;;;14.40;42.70;;;;;;5061042;28;20452;-86
2021/12/21 13:03:44;;;;;;;5.20;4.80;;;14.10;57.20;;;;;;5082646;28;20480;-85
2021/12/21 13:06:37;;;;;;;4.77;4.30;;;13.40;59.30;;;;;;5064068;28;20505;-86
2021/12/21 13:09:15;;;;;;;5.07;4.77;;;13.60;59.10;;;;;;5043408;28;20429;-86
2021/12/21 13:11:41;;;;;;;6.20;5.70;;;13.60;45.30;;;;;;5049592;28;20443;-84
2021/12/21 13:14:09;;;;;;;5.77;5.40;;;13.60;59.50;;;;;;5049356;28;21105;-82
2021/12/21 13:16:41;;;;;;;6.07;5.63;;;13.80;46.20;;;;;;5029001;28;20426;-85
2021/12/21 13:19:11;;;;;;;6.47;6.07;;;13.80;45.10;;;;;;5049085;28;20509;-85
2021/12/21 13:21:48;;;;;;;8.13;7.40;;;13.80;58.90;;;;;;5034040;28;20851;-85
2021/12/21 13:24:25;;;;;;;6.13;5.63;;;14.50;43.30;;;;;;5057107;28;20471;-85
2021/12/21 13:26:55;;;;;;;7.37;6.63;;;13.40;59.80;;;;;;5055225;28;20462;-85
2021/12/21 13:29:24;;;;;;;8.00;6.37;;;13.00;61.30;;;;;;5056649;28;20919;-85
2021/12/21 13:31:52;;;;;;;8.47;7.20;;;13.00;46.50;;;;;;5065431;28;20464;-85
2021/12/21 13:34:19;;;;;;;7.63;6.97;;;13.00;46.90;;;;;;5041467;28;20414;-87
2021/12/21 13:37:06;;;;;;;7.57;6.67;;;13.00;47.50;;;;;;5059732;28;20436;-85
2021/12/21 13:39:53;;;;;;;11.93;7.77;;;12.30;50.30;;;;;;5072465;28;20480;-88
2021/12/21 13:42:41;;;;;;;10.57;8.53;;;13.50;52.50;;;;;;5048194;28;20525;-84
2021/12/21 13:45:07;;;;;;;7.50;6.77;;;13.10;50.20;;;;;;5057400;28;20481;-84
2021/12/21 13:47:59;;;;;;;9.30;7.60;;;12.70;66.90;;;;;;5061185;28;20433;-85
2021/12/21 13:50:36;;;;;;;8.63;7.90;;;15.30;54.20;;;;;;5048945;28;20472;-85
2021/12/21 13:53:09;;;;;;;10.67;8.17;;;12.70;52.40;;;;;;5066731;28;20449;-86
2021/12/21 13:55:37;;;;;;;9.37;8.23;;;12.70;52.70;;;;;;5061254;28;20536;-86
2021/12/21 13:58:13;;;;;;;10.30;9.33;;;12.90;53.10;;;;;;5048257;28;20156;-85
2021/12/21 14:01:15;;;;;;;10.97;9.83;;;12.70;71.90;;;;;;5066437;28;20471;-87
2021/12/21 14:03:46;;;;;;;12.50;10.10;;;12.80;52.50;;;;;;5075395;28;20489;-85